createdAt,value
2017-08-06T00:00:05.270Z,3.57
2017-08-06T00:02:32.882Z,3.50
2017-08-06T00:05:00.425Z,3.37
2017-08-06T00:07:27.996Z,3.70
2017-08-06T00:09:55.566Z,3.93
2017-08-06T00:12:23.101Z,3.60
2017-08-06T00:14:50.641Z,3.53
2017-08-06T00:17:18.206Z,3.80
2017-08-06T00:19:45.745Z,3.80
2017-08-06T00:22:13.289Z,3.73
2017-08-06T00:24:40.904Z,4.30
2017-08-06T00:27:08.436Z,4.40
2017-08-06T00:29:35.968Z,4.17
2017-08-06T00:32:03.528Z,4.87
2017-08-06T00:34:31.841Z,4.43
2017-08-06T00:36:59.384Z,4.23
2017-08-06T00:39:26.998Z,4.73
2017-08-06T00:41:54.548Z,4.70
2017-08-06T00:44:22.085Z,4.87
2017-08-06T00:46:50.189Z,4.17
2017-08-06T00:49:17.720Z,3.50
2017-08-06T00:51:45.261Z,3.70
2017-08-06T00:54:12.841Z,4.17
2017-08-06T00:56:40.384Z,3.60
2017-08-06T00:59:07.924Z,3.10
2017-08-06T01:01:35.497Z,3.67
2017-08-06T01:04:03.040Z,3.43
2017-08-06T01:06:30.589Z,3.47
2017-08-06T01:08:58.201Z,3.37
2017-08-06T01:11:25.741Z,2.67
2017-08-06T01:13:53.277Z,3.53
2017-08-06T01:16:20.857Z,3.23
2017-08-06T01:18:48.401Z,2.90
2017-08-06T01:21:15.945Z,3.10
2017-08-06T01:23:43.528Z,3.40
2017-08-06T01:26:11.073Z,3.77
2017-08-06T01:28:38.618Z,3.70
2017-08-06T01:31:06.257Z,3.23
2017-08-06T01:33:33.796Z,3.93
2017-08-06T01:36:01.332Z,3.50
2017-08-06T01:38:28.896Z,3.40
2017-08-06T01:40:56.437Z,3.63
2017-08-06T01:43:23.980Z,3.40
2017-08-06T01:45:51.584Z,3.80
2017-08-06T01:48:19.465Z,3.90
2017-08-06T01:50:47.010Z,3.57
2017-08-06T01:53:14.624Z,3.57
2017-08-06T01:55:42.165Z,4.20
2017-08-06T01:58:09.700Z,3.47
2017-08-06T02:00:37.268Z,3.83
2017-08-06T02:03:05.025Z,3.73
2017-08-06T02:05:32.573Z,4.60
2017-08-06T02:08:00.139Z,3.90
2017-08-06T02:10:27.688Z,3.80
2017-08-06T02:12:55.220Z,3.30
2017-08-06T02:15:22.824Z,4.00
2017-08-06T02:17:50.365Z,3.40
2017-08-06T02:20:17.906Z,3.77
2017-08-06T02:22:45.468Z,3.37
2017-08-06T02:25:13.013Z,3.47
2017-08-06T02:27:41.326Z,3.40
2017-08-06T02:30:08.904Z,3.30
2017-08-06T02:32:36.444Z,3.23
2017-08-06T02:35:04.253Z,3.13
2017-08-06T02:37:31.872Z,3.50
2017-08-06T02:39:59.413Z,3.50
2017-08-06T02:42:26.949Z,3.20
2017-08-06T02:44:54.510Z,3.40
2017-08-06T02:47:22.053Z,3.77
2017-08-06T02:49:49.809Z,3.33
2017-08-06T02:52:17.412Z,3.07
2017-08-06T02:54:44.945Z,2.90
2017-08-06T02:57:12.486Z,3.10
2017-08-06T02:59:40.565Z,3.00
2017-08-06T03:02:08.099Z,3.37
2017-08-06T03:04:35.645Z,3.23
2017-08-06T03:07:03.218Z,3.10
2017-08-06T03:09:30.769Z,2.97
2017-08-06T03:11:58.309Z,3.37
2017-08-06T03:14:25.873Z,3.50
2017-08-06T03:16:53.412Z,3.53
2017-08-06T03:19:20.953Z,3.70
2017-08-06T03:21:48.576Z,3.40
2017-08-06T03:24:16.108Z,3.57
2017-08-06T03:26:43.645Z,3.07
2017-08-06T03:29:11.216Z,4.03
2017-08-06T03:31:39.517Z,3.57
2017-08-06T03:34:07.052Z,4.00
2017-08-06T03:36:35.389Z,3.50
2017-08-06T03:39:02.931Z,3.17
2017-08-06T03:41:30.477Z,3.20
2017-08-06T03:43:58.158Z,3.30
2017-08-06T03:46:25.698Z,3.67
2017-08-06T03:48:53.233Z,3.27
2017-08-06T03:51:21.348Z,3.13
2017-08-06T03:53:48.889Z,3.67
2017-08-06T03:56:16.428Z,3.40
2017-08-06T03:58:44.033Z,2.97
2017-08-06T04:01:11.569Z,4.10
2017-08-06T04:03:39.113Z,3.73
2017-08-06T04:06:06.720Z,2.90
2017-08-06T04:08:34.286Z,4.00
2017-08-06T04:11:01.816Z,3.50
2017-08-06T04:13:29.379Z,3.87
2017-08-06T04:15:56.912Z,3.90
2017-08-06T04:18:25.217Z,4.10
2017-08-06T04:20:52.785Z,3.30
2017-08-06T04:23:20.389Z,3.33
2017-08-06T04:25:47.937Z,3.87
2017-08-06T04:28:15.733Z,4.10
2017-08-06T04:30:44.041Z,3.37
2017-08-06T04:33:11.585Z,3.90
2017-08-06T04:35:39.168Z,4.00
2017-08-06T04:38:06.730Z,3.70
2017-08-06T04:40:34.288Z,3.57
2017-08-06T04:43:01.934Z,3.13
2017-08-06T04:45:29.545Z,4.33
2017-08-06T04:47:57.137Z,2.90
2017-08-06T04:50:25.204Z,4.10
2017-08-06T04:52:53.000Z,3.80
2017-08-06T04:55:20.540Z,3.83
2017-08-06T04:57:48.101Z,3.63
2017-08-06T05:00:15.776Z,3.37
2017-08-06T05:02:43.342Z,3.80
2017-08-06T05:05:11.010Z,4.30
2017-08-06T05:07:38.561Z,3.50
2017-08-06T05:10:06.236Z,3.30
2017-08-06T05:12:33.841Z,3.50
2017-08-06T05:15:01.408Z,4.07
2017-08-06T05:17:29.022Z,3.97
2017-08-06T05:19:56.642Z,2.80
2017-08-06T05:22:24.244Z,3.70
2017-08-06T05:24:51.818Z,3.40
2017-08-06T05:27:19.407Z,3.47
2017-08-06T05:29:46.973Z,3.53
2017-08-06T05:32:14.526Z,3.30
2017-08-06T05:34:42.135Z,3.30
2017-08-06T05:37:09.672Z,3.30
2017-08-06T05:39:37.217Z,3.27
2017-08-06T05:42:05.646Z,3.20
2017-08-06T05:44:33.193Z,2.87
2017-08-06T05:47:00.745Z,3.10
2017-08-06T05:49:28.389Z,3.10
2017-08-06T05:51:55.949Z,2.93
2017-08-06T05:54:24.020Z,3.30
2017-08-06T05:56:51.741Z,2.70
2017-08-06T05:59:19.296Z,3.30
2017-08-06T06:01:46.908Z,2.43
2017-08-06T06:04:14.517Z,3.10
2017-08-06T06:06:42.917Z,3.60
2017-08-06T06:09:10.462Z,3.07
2017-08-06T06:11:38.072Z,3.40
2017-08-06T06:14:05.627Z,3.03
2017-08-06T06:16:33.181Z,3.97
2017-08-06T06:19:01.084Z,3.23
2017-08-06T06:21:28.653Z,2.77
2017-08-06T06:23:56.325Z,2.93
2017-08-06T06:26:23.979Z,3.00
2017-08-06T06:28:51.629Z,3.30
2017-08-06T06:31:19.169Z,3.50
2017-08-06T06:33:46.773Z,3.23
2017-08-06T06:36:15.101Z,3.60
2017-08-06T06:38:42.645Z,3.33
2017-08-06T06:41:10.284Z,3.20
2017-08-06T06:43:37.846Z,3.13
2017-08-06T06:46:05.409Z,3.50
2017-08-06T06:48:33.109Z,2.90
2017-08-06T06:51:00.694Z,3.20
2017-08-06T06:53:28.251Z,3.80
2017-08-06T06:55:55.933Z,3.23
2017-08-06T06:58:23.477Z,3.23
2017-08-06T07:00:51.033Z,3.30
2017-08-06T07:03:18.648Z,3.40
2017-08-06T07:05:48.729Z,2.70
2017-08-06T07:08:16.387Z,2.80
2017-08-06T07:10:44.977Z,2.90
2017-08-06T07:13:13.076Z,3.00
2017-08-06T07:15:40.825Z,3.10
2017-08-06T07:18:08.566Z,4.10
2017-08-06T07:20:36.520Z,2.80
2017-08-06T07:23:04.142Z,2.73
2017-08-06T07:25:31.854Z,3.63
2017-08-06T07:27:59.415Z,4.00
2017-08-06T07:30:27.201Z,3.00
2017-08-06T07:33:00.376Z,3.70
2017-08-06T07:35:28.905Z,3.83
2017-08-06T07:37:57.142Z,3.40
2017-08-06T07:40:24.763Z,3.33
2017-08-06T07:42:53.432Z,3.53
2017-08-06T07:45:21.040Z,3.00
2017-08-06T07:47:48.647Z,2.90
2017-08-06T07:50:16.208Z,3.27
2017-08-06T07:52:43.741Z,4.10
2017-08-06T07:55:11.304Z,4.20
2017-08-06T07:57:39.669Z,3.10
2017-08-06T08:00:07.200Z,3.47
2017-08-06T08:02:34.768Z,3.60
2017-08-06T08:05:02.307Z,3.47
2017-08-06T08:07:29.857Z,4.00
2017-08-06T08:09:57.457Z,3.40
2017-08-06T08:12:25.000Z,3.37
2017-08-06T08:14:52.555Z,3.60
2017-08-06T08:17:25.952Z,3.43
2017-08-06T08:19:53.485Z,3.60
2017-08-06T08:22:21.105Z,3.50
2017-08-06T08:24:48.849Z,3.10
2017-08-06T08:27:16.453Z,3.47
2017-08-06T08:29:44.073Z,4.53
2017-08-06T08:32:11.693Z,3.10
2017-08-06T08:34:40.725Z,3.53
2017-08-06T08:37:08.699Z,3.20
2017-08-06T08:39:36.274Z,3.40
2017-08-06T08:42:03.808Z,3.50
2017-08-06T08:44:31.593Z,3.30
2017-08-06T08:46:59.161Z,3.43
2017-08-06T08:49:27.054Z,2.87
2017-08-06T08:51:55.401Z,3.10
2017-08-06T08:54:23.011Z,3.50
2017-08-06T08:56:50.576Z,3.90
2017-08-06T08:59:18.478Z,3.20
2017-08-06T09:01:46.138Z,3.90
2017-08-06T09:04:13.747Z,3.90
2017-08-06T09:06:41.289Z,3.90
2017-08-06T09:09:08.868Z,3.40
2017-08-06T09:11:37.181Z,4.17
2017-08-06T09:14:04.724Z,3.90
2017-08-06T09:16:32.321Z,5.20
2017-08-06T09:18:59.857Z,4.17
2017-08-06T09:21:27.413Z,3.97
2017-08-06T09:23:54.972Z,3.90
2017-08-06T09:26:22.513Z,4.23
2017-08-06T09:28:50.057Z,5.00
2017-08-06T09:31:18.437Z,3.63
2017-08-06T09:33:46.744Z,3.57
2017-08-06T09:36:14.279Z,3.50
2017-08-06T09:38:42.784Z,3.50
2017-08-06T09:41:10.317Z,3.23
2017-08-06T09:43:37.855Z,3.60
2017-08-06T09:46:05.429Z,3.60
2017-08-06T09:48:32.973Z,3.63
2017-08-06T09:51:00.504Z,3.60
2017-08-06T09:53:28.098Z,3.90
2017-08-06T09:55:55.644Z,4.10
2017-08-06T09:58:23.185Z,3.33
2017-08-06T10:00:51.456Z,3.80
2017-08-06T10:03:19.000Z,3.47
2017-08-06T10:05:46.531Z,2.87
2017-08-06T10:08:14.873Z,3.00
2017-08-06T10:10:42.413Z,3.43
2017-08-06T10:13:10.009Z,3.00
2017-08-06T10:15:37.581Z,3.63
2017-08-06T10:18:05.922Z,3.47
2017-08-06T10:20:33.484Z,4.20
2017-08-06T10:23:01.729Z,3.77
2017-08-06T10:25:30.757Z,4.10
2017-08-06T10:27:59.207Z,3.50
2017-08-06T10:30:26.802Z,3.90
2017-08-06T10:32:54.412Z,3.43
2017-08-06T10:35:22.003Z,3.30
2017-08-06T10:37:49.638Z,3.30
2017-08-06T10:40:17.898Z,4.50
2017-08-06T10:42:45.477Z,4.20
2017-08-06T10:45:14.894Z,4.00
2017-08-06T10:47:42.495Z,3.57
2017-08-06T10:50:10.087Z,4.27
2017-08-06T10:52:37.716Z,3.83
2017-08-06T10:55:06.209Z,4.07
2017-08-06T10:57:34.509Z,4.47
2017-08-06T11:00:02.865Z,5.17
2017-08-06T11:02:30.454Z,4.00
2017-08-06T11:04:58.021Z,4.30
2017-08-06T11:07:25.674Z,4.40
2017-08-06T11:09:53.238Z,3.97
2017-08-06T11:12:21.056Z,4.23
2017-08-06T11:14:48.653Z,4.00
2017-08-06T11:17:16.213Z,4.07
2017-08-06T11:19:43.792Z,4.00
2017-08-06T11:22:11.431Z,3.40
2017-08-06T11:24:38.998Z,4.33
2017-08-06T11:27:06.599Z,4.70
2017-08-06T11:29:34.253Z,4.60
2017-08-06T11:32:01.827Z,4.37
2017-08-06T11:34:29.410Z,4.43
2017-08-06T11:36:56.995Z,4.57
2017-08-06T11:39:24.570Z,4.53
2017-08-06T11:41:52.164Z,4.00
2017-08-06T11:44:19.774Z,4.40
2017-08-06T11:46:47.532Z,4.63
2017-08-06T11:49:15.092Z,4.23
2017-08-06T11:51:42.713Z,4.17
2017-08-06T11:54:10.323Z,4.53
2017-08-06T11:56:38.662Z,4.53
2017-08-06T11:59:06.248Z,3.80
2017-08-06T12:01:33.815Z,4.17
2017-08-06T12:04:01.981Z,3.87
2017-08-06T12:06:29.629Z,4.23
2017-08-06T12:08:57.194Z,3.40
2017-08-06T12:11:24.765Z,4.10
2017-08-06T12:13:52.498Z,5.60
2017-08-06T12:16:20.104Z,5.30
2017-08-06T12:18:47.742Z,5.23
2017-08-06T12:21:15.349Z,4.93
2017-08-06T12:23:42.922Z,5.27
2017-08-06T12:26:10.513Z,5.20
2017-08-06T12:28:38.173Z,5.27
2017-08-06T12:31:05.737Z,6.07
2017-08-06T12:33:33.318Z,6.13
2017-08-06T12:36:01.717Z,5.10
2017-08-06T12:38:30.102Z,5.07
2017-08-06T12:40:57.685Z,5.60
2017-08-06T12:43:25.345Z,5.90
2017-08-06T12:45:52.925Z,5.83
2017-08-06T12:48:20.659Z,6.53
2017-08-06T12:50:48.318Z,6.83
2017-08-06T12:53:15.870Z,7.27
2017-08-06T12:55:43.437Z,6.73
2017-08-06T12:58:11.053Z,7.30
2017-08-06T13:00:38.611Z,6.57
2017-08-06T13:03:06.188Z,8.90
2017-08-06T13:05:34.082Z,7.90
2017-08-06T13:08:01.634Z,8.40
2017-08-06T13:10:29.181Z,7.17
2017-08-06T13:12:57.714Z,7.40
2017-08-06T13:15:25.258Z,6.90
2017-08-06T13:17:52.806Z,6.67
2017-08-06T13:20:20.453Z,8.03
2017-08-06T13:22:47.992Z,7.20
2017-08-06T13:25:15.525Z,7.60
2017-08-06T13:27:43.089Z,6.53
2017-08-06T13:30:10.629Z,7.33
2017-08-06T13:32:38.168Z,8.00
2017-08-06T13:35:05.747Z,7.07
2017-08-06T13:37:33.289Z,8.70
2017-08-06T13:40:00.833Z,7.77
2017-08-06T13:42:29.221Z,7.97
2017-08-06T13:44:56.765Z,8.20
2017-08-06T13:47:24.314Z,7.03
2017-08-06T13:49:51.885Z,7.60
2017-08-06T13:52:19.425Z,7.47
2017-08-06T13:54:46.964Z,8.33
2017-08-06T13:57:14.577Z,6.57
2017-08-06T13:59:42.116Z,6.17
2017-08-06T14:02:09.660Z,6.97
2017-08-06T14:04:37.273Z,7.10
2017-08-06T14:07:04.893Z,7.40
2017-08-06T14:09:32.450Z,6.90
2017-08-06T14:12:00.008Z,7.23
2017-08-06T14:14:27.557Z,6.70
2017-08-06T14:16:55.099Z,7.47
2017-08-06T14:19:22.673Z,7.07
2017-08-06T14:21:50.209Z,6.67
2017-08-06T14:24:17.744Z,6.00
2017-08-06T14:26:45.377Z,6.53
2017-08-06T14:29:12.909Z,6.67
2017-08-06T14:31:40.457Z,7.60
2017-08-06T14:34:08.026Z,8.17
2017-08-06T14:36:35.575Z,7.87
2017-08-06T14:39:03.251Z,8.40
2017-08-06T14:41:30.812Z,6.80
2017-08-06T14:43:58.354Z,7.20
2017-08-06T14:46:25.897Z,7.17
2017-08-06T14:48:53.552Z,6.43
2017-08-06T14:51:21.095Z,7.47
2017-08-06T14:53:49.396Z,8.07
2017-08-06T14:56:16.957Z,7.57
2017-08-06T14:58:44.492Z,8.30
2017-08-06T15:01:12.065Z,8.27
2017-08-06T15:03:39.661Z,8.70
2017-08-06T15:06:07.207Z,7.67
2017-08-06T15:08:35.108Z,8.27
2017-08-06T15:11:02.724Z,9.70
2017-08-06T15:13:30.269Z,10.20
2017-08-06T15:15:57.808Z,10.27
2017-08-06T15:18:26.149Z,9.43
2017-08-06T15:20:53.693Z,8.97
2017-08-06T15:23:21.241Z,9.33
2017-08-06T15:25:48.811Z,9.90
2017-08-06T15:28:16.366Z,10.57
2017-08-06T15:30:43.905Z,9.63
2017-08-06T15:33:11.509Z,9.73
2017-08-06T15:35:39.053Z,9.37
2017-08-06T15:38:06.588Z,8.90
2017-08-06T15:40:34.160Z,8.80
2017-08-06T15:43:01.701Z,9.33
2017-08-06T15:45:29.245Z,9.03
2017-08-06T15:47:56.812Z,8.90
2017-08-06T15:50:24.360Z,9.63
2017-08-06T15:52:51.902Z,8.93
2017-08-06T15:55:19.500Z,8.40
2017-08-06T15:57:47.045Z,9.40
2017-08-06T16:00:15.359Z,9.57
2017-08-06T16:02:42.933Z,8.20
2017-08-06T16:05:10.483Z,8.97
2017-08-06T16:07:38.025Z,9.63
2017-08-06T16:10:05.854Z,9.40
2017-08-06T16:12:33.396Z,9.03
2017-08-06T16:15:00.936Z,8.00
2017-08-06T16:17:28.544Z,8.00
2017-08-06T16:19:56.843Z,8.10
2017-08-06T16:22:24.381Z,8.20
2017-08-06T16:24:51.952Z,8.00
2017-08-06T16:27:19.512Z,8.20
2017-08-06T16:29:47.052Z,8.13
2017-08-06T16:32:14.632Z,6.73
2017-08-06T16:34:42.176Z,8.10
2017-08-06T16:37:09.714Z,7.40
2017-08-06T16:39:37.312Z,7.50
2017-08-06T16:42:04.853Z,7.33
2017-08-06T16:44:32.389Z,6.60
2017-08-06T16:46:59.958Z,7.07
2017-08-06T16:49:27.492Z,6.20
2017-08-06T16:51:55.035Z,6.53
2017-08-06T16:54:22.596Z,6.90
2017-08-06T16:56:50.128Z,6.90
2017-08-06T16:59:17.665Z,6.97
2017-08-06T17:01:45.283Z,7.20
2017-08-06T17:04:12.842Z,6.90
2017-08-06T17:06:40.372Z,7.60
2017-08-06T17:09:07.936Z,6.90
2017-08-06T17:11:35.903Z,8.30
2017-08-06T17:14:03.466Z,8.30
2017-08-06T17:16:31.073Z,9.30
2017-08-06T17:18:58.614Z,8.10
2017-08-06T17:21:26.161Z,8.00
2017-08-06T17:23:53.805Z,7.50
2017-08-06T17:26:21.357Z,8.17
2017-08-06T17:28:49.675Z,7.40
2017-08-06T17:31:17.237Z,7.03
2017-08-06T17:33:44.801Z,7.10
2017-08-06T17:36:12.337Z,7.87
2017-08-06T17:38:39.901Z,6.90
2017-08-06T17:41:07.456Z,6.70
2017-08-06T17:43:34.993Z,7.00
2017-08-06T17:46:02.609Z,6.53
2017-08-06T17:48:30.969Z,6.40
2017-08-06T17:50:58.516Z,6.73
2017-08-06T17:53:26.101Z,7.10
2017-08-06T17:55:53.718Z,8.60
2017-08-06T17:58:21.259Z,7.90
2017-08-06T18:00:48.840Z,8.53
2017-08-06T18:03:17.164Z,9.10
2017-08-06T18:05:44.709Z,7.20
2017-08-06T18:08:12.388Z,8.23
2017-08-06T18:10:39.924Z,8.80
2017-08-06T18:13:08.065Z,8.27
2017-08-06T18:15:35.976Z,9.07
2017-08-06T18:18:03.613Z,8.60
2017-08-06T18:20:31.178Z,9.30
2017-08-06T18:22:58.785Z,7.93
2017-08-06T18:25:26.371Z,8.00
2017-08-06T18:27:53.981Z,9.10
2017-08-06T18:30:21.620Z,8.70
2017-08-06T18:32:49.216Z,8.37
2017-08-06T18:35:16.991Z,8.70
2017-08-06T18:37:44.590Z,9.13
2017-08-06T18:40:13.287Z,8.87
2017-08-06T18:42:41.037Z,9.10
2017-08-06T18:45:08.605Z,8.80
2017-08-06T18:47:36.949Z,8.80
2017-08-06T18:50:05.284Z,10.40
2017-08-06T18:52:33.425Z,9.23
2017-08-06T18:55:01.013Z,9.60
2017-08-06T18:57:28.560Z,10.40
2017-08-06T18:59:56.128Z,10.37
2017-08-06T19:02:23.719Z,10.83
2017-08-06T19:04:51.305Z,11.60
2017-08-06T19:07:18.922Z,11.27
2017-08-06T19:09:46.473Z,9.20
2017-08-06T19:12:14.016Z,9.43
2017-08-06T19:14:42.677Z,9.80
2017-08-06T19:17:10.225Z,10.20
2017-08-06T19:19:37.771Z,11.00
2017-08-06T19:22:05.349Z,11.00
2017-08-06T19:24:32.897Z,10.03
2017-08-06T19:27:00.440Z,11.87
2017-08-06T19:29:28.053Z,12.77
2017-08-06T19:31:56.373Z,13.90
2017-08-06T19:34:23.912Z,13.57
2017-08-06T19:36:51.573Z,12.03
2017-08-06T19:39:19.121Z,11.13
2017-08-06T19:41:46.682Z,12.77
2017-08-06T19:44:14.279Z,11.83
2017-08-06T19:46:41.831Z,10.53
2017-08-06T19:49:09.373Z,10.63
2017-08-06T19:51:36.949Z,10.90
2017-08-06T19:54:04.497Z,11.87
2017-08-06T19:56:32.045Z,10.57
2017-08-06T19:58:59.701Z,11.10
2017-08-06T20:01:27.245Z,10.50
2017-08-06T20:03:54.793Z,14.33
2017-08-06T20:06:22.365Z,13.97
2017-08-06T20:08:49.899Z,10.43
2017-08-06T20:11:17.444Z,11.80
2017-08-06T20:13:45.022Z,11.50
2017-08-06T20:16:12.916Z,11.33
2017-08-06T20:18:40.460Z,10.00
2017-08-06T20:21:08.069Z,11.13
2017-08-06T20:23:35.615Z,11.63
2017-08-06T20:26:03.160Z,11.43
2017-08-06T20:28:31.657Z,10.37
2017-08-06T20:30:59.200Z,11.67
2017-08-06T20:33:26.753Z,10.83
2017-08-06T20:35:54.366Z,11.10
2017-08-06T20:38:21.908Z,12.30
2017-08-06T20:40:49.457Z,11.20
2017-08-06T20:43:17.077Z,11.70
2017-08-06T20:45:44.629Z,11.90
2017-08-06T20:48:12.170Z,13.47
2017-08-06T20:50:39.745Z,11.87
2017-08-06T20:53:07.289Z,10.33
2017-08-06T20:55:34.841Z,10.60
2017-08-06T20:58:02.421Z,10.50
2017-08-06T21:00:29.965Z,10.93
2017-08-06T21:02:57.513Z,11.63
2017-08-06T21:05:25.142Z,11.77
2017-08-06T21:07:52.697Z,11.03
2017-08-06T21:10:20.504Z,11.87
2017-08-06T21:12:48.073Z,11.07
2017-08-06T21:15:15.628Z,11.00
2017-08-06T21:17:43.789Z,10.87
2017-08-06T21:20:11.368Z,11.20
2017-08-06T21:22:38.917Z,12.90
2017-08-06T21:25:06.460Z,11.20
2017-08-06T21:27:34.077Z,10.37
2017-08-06T21:30:01.629Z,10.10
2017-08-06T21:32:29.172Z,10.93
2017-08-06T21:34:56.745Z,11.57
2017-08-06T21:37:24.297Z,11.80
2017-08-06T21:39:51.846Z,10.17
2017-08-06T21:42:19.456Z,10.83
2017-08-06T21:44:46.997Z,9.50
2017-08-06T21:47:14.545Z,11.83
2017-08-06T21:49:43.097Z,11.47
2017-08-06T21:52:10.640Z,11.70
2017-08-06T21:54:38.193Z,11.47
2017-08-06T21:57:06.529Z,11.43
2017-08-06T21:59:34.077Z,9.93
2017-08-06T22:02:01.630Z,10.60
2017-08-06T22:04:29.205Z,10.83
2017-08-06T22:06:56.757Z,10.33
2017-08-06T22:09:24.345Z,10.17
2017-08-06T22:11:51.957Z,10.93
2017-08-06T22:14:19.505Z,9.43
2017-08-06T22:16:47.054Z,10.40
2017-08-06T22:19:14.966Z,10.33
2017-08-06T22:21:42.511Z,11.63
2017-08-06T22:24:10.056Z,10.73
2017-08-06T22:26:37.641Z,10.63
2017-08-06T22:29:05.195Z,10.23
2017-08-06T22:31:32.745Z,10.17
2017-08-06T22:34:00.700Z,10.50
2017-08-06T22:36:28.257Z,10.77
2017-08-06T22:38:55.809Z,11.30
2017-08-06T22:41:24.278Z,9.50
2017-08-06T22:43:51.836Z,9.87
2017-08-06T22:46:19.386Z,10.40
2017-08-06T22:48:47.002Z,9.27
2017-08-06T22:51:14.545Z,9.90
2017-08-06T22:53:42.089Z,10.33
2017-08-06T22:56:10.496Z,11.50
2017-08-06T22:58:38.041Z,9.63
2017-08-06T23:01:05.580Z,10.23
2017-08-06T23:03:33.169Z,10.77
2017-08-06T23:06:00.704Z,10.10
2017-08-06T23:08:28.236Z,9.13
2017-08-06T23:10:55.805Z,9.23
2017-08-06T23:13:23.349Z,9.80
2017-08-06T23:15:50.896Z,9.90
2017-08-06T23:18:18.521Z,9.30
2017-08-06T23:20:46.408Z,9.63
2017-08-06T23:23:13.961Z,10.33
2017-08-06T23:25:41.531Z,10.70
2017-08-06T23:28:09.081Z,10.13
2017-08-06T23:30:36.628Z,11.47
2017-08-06T23:33:04.193Z,10.37
2017-08-06T23:35:31.741Z,11.13
2017-08-06T23:37:59.288Z,9.87
2017-08-06T23:40:26.941Z,10.60
2017-08-06T23:42:54.494Z,10.40
2017-08-06T23:45:22.032Z,10.70
2017-08-06T23:47:49.624Z,11.13
2017-08-06T23:50:17.169Z,11.10
2017-08-06T23:52:44.714Z,12.03
2017-08-06T23:55:12.320Z,9.33
2017-08-06T23:57:39.861Z,11.23
